Terminal Aerodrome Forecast
Issued by NWS

Home | Current Version | Previous Version | Text Only | Print | Product List | Glossary On
Versions: 1 2 3 4 5 6 7 8 9 10 11 12 13 14 15 16 17 18 19 20 21 22 23 24 25 26 27 28
000
FTUS41 KAKQ 030500
TAFPHF
TAF
KPHF 030535Z 0306/0406 04004KT P6SM SCT250
     FM031400 07004KT P6SM BKN100 OVC200
     FM031700 14006KT P6SM BKN050 OVC120
     FM032300 17005KT 4SM -RA BR SCT020 OVC040
     FM040200 19008KT 4SM -RA BR SCT009 OVC020=

USA.gov is the U.S. government's official web portal to all federal, state and local government web resources and services.